St Georges Chan, Ireland
Current Conditions -  °F | °C
As of 9:30 AM on Saturday 25 Oct 2014 (Local Time) from EIWF Reporting Station
Broken Clouds Broken Clouds  
Wind Chill: 52°   Ceiling: 4300
Heat Index: 52°   Visibility: 6mi
Dew Point: 48°   Wind: 10mph
Humidity: 88%   Direction: 270°W
Pressure: 29.94"   Gusts: NA
Location:  52°N, 5.83°W
Report Text: EIWF 250830Z 27009KT 230V310 9999 FEW015CB SCT020 BKN043 11/09 Q1014
Loading
Personal Weather Stations






























Interactive Weather Map
Tropical Storm Tracking
New forecast layout! Learn more

10-Day Weather Forecast

Advertisements
Track Severe Weather on mobile